Time;durP1;ratioP1;P1;durP2;ratioP2;P2;SDS_P1;SDS_P2;PMS_P1;PMS_P2;Temp;Humidity;BMP_temperature;BMP_pressure;BME280_temperature;BME280_humidity;BME280_pressure;Samples;Min_cycle;Max_cycle;Signal;HPM_P1;HPM_P2
2022/04/05 00:02:24;;;;;;;0.70;0.70;;;-2.10;99.90;;;;;;4959178;28;20204;-82
2022/04/05 00:04:50;;;;;;;0.70;0.70;;;-2.10;99.90;;;;;;4958284;28;20609;-82
2022/04/05 00:07:16;;;;;;;0.80;0.80;;;-2.10;99.90;;;;;;4974215;28;20250;-82
2022/04/05 00:09:42;;;;;;;0.80;0.80;;;-2.10;99.90;;;;;;4974283;28;20215;-82
2022/04/05 00:12:08;;;;;;;0.73;0.73;;;-2.10;99.90;;;;;;4957946;28;20212;-82
2022/04/05 00:14:34;;;;;;;0.70;0.70;;;-2.10;99.90;;;;;;4975276;28;20196;-83
2022/04/05 00:17:02;;;;;;;0.80;0.80;;;-2.10;99.90;;;;;;4976484;28;20200;-83
2022/04/05 00:19:28;;;;;;;0.77;0.77;;;-2.10;99.90;;;;;;4958844;28;20542;-83
2022/04/05 00:21:54;;;;;;;0.80;0.80;;;-2.10;99.90;;;;;;4973558;28;20212;-82
2022/04/05 00:24:20;;;;;;;0.80;0.80;;;-2.10;99.90;;;;;;4971996;28;20290;-83
2022/04/05 00:26:46;;;;;;;0.60;0.60;;;-2.10;99.90;;;;;;4975007;28;20204;-83
2022/04/05 00:29:12;;;;;;;0.80;0.80;;;-2.20;99.90;;;;;;4974799;28;20207;-82
2022/04/05 00:31:38;;;;;;;0.60;0.60;;;-2.20;99.90;;;;;;4974815;28;20639;-83
2022/04/05 00:34:04;;;;;;;0.75;0.75;;;-2.30;99.90;;;;;;4973667;28;20204;-83
2022/04/05 00:36:30;;;;;;;0.70;0.70;;;-2.30;99.90;;;;;;4974592;28;20200;-83
2022/04/05 00:38:55;;;;;;;0.80;0.80;;;-2.30;99.90;;;;;;4974706;28;20199;-83
2022/04/05 00:41:21;;;;;;;0.80;0.80;;;-2.40;99.90;;;;;;4958216;28;20222;-82
2022/04/05 00:43:47;;;;;;;0.80;0.80;;;-2.40;99.90;;;;;;4958267;28;20200;-83
2022/04/05 00:46:13;;;;;;;0.80;0.80;;;-2.40;99.90;;;;;;4958248;28;20219;-82
2022/04/05 00:48:57;;;;;;;0.80;0.80;;;-2.40;99.90;;;;;;4974309;28;20295;-83
2022/04/05 00:51:24;;;;;;;0.70;0.70;;;-2.40;99.90;;;;;;4957760;28;20709;-82
2022/04/05 00:54:04;;;;;;;0.80;0.80;;;-2.40;99.90;;;;;;4974497;28;20196;-82
2022/04/05 00:56:33;;;;;;;0.80;0.80;;;-2.40;99.90;;;;;;4974000;28;20330;-83
2022/04/05 00:59:01;;;;;;;0.70;0.70;;;-2.40;99.90;;;;;;4975604;28;20195;-82
2022/04/05 01:01:28;;;;;;;0.80;0.80;;;-2.40;99.90;;;;;;4957369;28;20203;-82
2022/04/05 01:03:54;;;;;;;0.70;0.70;;;-2.40;99.90;;;;;;4957119;28;20699;-82
2022/04/05 01:06:27;;;;;;;0.70;0.70;;;-2.40;99.90;;;;;;4956480;28;20223;-82
2022/04/05 01:08:53;;;;;;;0.80;0.80;;;-2.40;99.90;;;;;;4974308;28;20239;-81
2022/04/05 01:11:19;;;;;;;0.80;0.80;;;-2.40;99.90;;;;;;4956677;28;20695;-82
2022/04/05 01:13:44;;;;;;;0.80;0.80;;;-2.40;99.90;;;;;;4973621;28;20202;-82
2022/04/05 01:16:11;;;;;;;0.80;0.80;;;-2.50;99.90;;;;;;4956846;28;20200;-81
2022/04/05 01:18:37;;;;;;;0.80;0.80;;;-2.50;99.90;;;;;;4957669;28;20200;-81
2022/04/05 01:21:04;;;;;;;0.90;0.90;;;-2.50;99.90;;;;;;4973826;28;20243;-81
2022/04/05 01:23:30;;;;;;;0.80;0.80;;;-2.60;99.90;;;;;;4957670;28;20620;-82
2022/04/05 01:25:56;;;;;;;0.80;0.80;;;-2.60;99.90;;;;;;4973874;28;20688;-83
2022/04/05 01:28:23;;;;;;;0.80;0.80;;;-2.70;99.90;;;;;;4973447;28;20267;-82
2022/04/05 01:30:50;;;;;;;0.80;0.80;;;-2.60;99.90;;;;;;4974659;28;20616;-82
2022/04/05 01:33:15;;;;;;;0.75;0.75;;;-2.70;99.90;;;;;;4972803;28;20231;-80
2022/04/05 01:35:42;;;;;;;0.70;0.70;;;-2.70;99.90;;;;;;4972658;28;20200;-82
2022/04/05 01:38:07;;;;;;;0.80;0.80;;;-2.80;99.90;;;;;;4971982;28;20662;-83
2022/04/05 01:40:33;;;;;;;0.80;0.80;;;-2.80;99.90;;;;;;4973950;28;20230;-82
2022/04/05 01:42:59;;;;;;;0.80;0.80;;;-2.80;99.90;;;;;;4993410;28;20698;-82
2022/04/05 01:45:25;;;;;;;0.88;0.88;;;-2.80;99.90;;;;;;4989081;28;20211;-82
2022/04/05 01:47:51;;;;;;;0.85;0.85;;;-2.80;99.90;;;;;;4959311;28;20193;-82
2022/04/05 01:50:17;;;;;;;0.80;0.80;;;-2.80;99.90;;;;;;4956052;29;20205;-82
2022/04/05 01:52:43;;;;;;;0.80;0.80;;;-2.80;99.90;;;;;;4954873;28;20575;-82
2022/04/05 01:55:09;;;;;;;0.77;0.77;;;-2.80;99.90;;;;;;4956028;29;20276;-83
2022/04/05 01:57:35;;;;;;;0.80;0.80;;;-2.80;99.90;;;;;;4954283;28;20563;-82
2022/04/05 02:00:02;;;;;;;0.80;0.80;;;-2.80;99.90;;;;;;4938815;29;20197;-82
2022/04/05 02:02:28;;;;;;;0.77;0.77;;;-2.80;99.90;;;;;;4969720;28;20200;-82
2022/04/05 02:04:54;;;;;;;0.90;0.90;;;-2.90;99.90;;;;;;4972535;28;20744;-82
2022/04/05 02:07:20;;;;;;;0.70;0.70;;;-2.90;99.90;;;;;;4969661;28;20570;-82
2022/04/05 02:09:48;;;;;;;0.80;0.80;;;-2.90;99.90;;;;;;4992806;28;20609;-81
2022/04/05 02:12:15;;;;;;;0.80;0.80;;;-2.90;99.90;;;;;;4993134;28;20674;-82
2022/04/05 02:14:40;;;;;;;0.70;0.70;;;-3.00;99.90;;;;;;4991671;28;20236;-82
2022/04/05 02:17:07;;;;;;;0.80;0.80;;;-3.00;99.90;;;;;;4993155;28;20196;-82
2022/04/05 02:19:34;;;;;;;0.80;0.80;;;-2.90;99.90;;;;;;4994005;28;20227;-81
2022/04/05 02:21:59;;;;;;;0.80;0.80;;;-3.00;99.90;;;;;;4994339;28;20607;-82
2022/04/05 02:24:25;;;;;;;0.80;0.80;;;-3.00;99.90;;;;;;4992616;28;20286;-81
2022/04/05 02:26:51;;;;;;;0.73;0.73;;;-3.00;99.90;;;;;;4982889;28;20208;-81
2022/04/05 02:29:17;;;;;;;0.80;0.80;;;-3.10;99.90;;;;;;4974385;28;20316;-81
2022/04/05 02:31:42;;;;;;;0.70;0.70;;;-3.00;99.90;;;;;;4973394;28;20223;-81
2022/04/05 02:34:09;;;;;;;0.90;0.90;;;-3.00;99.90;;;;;;4973323;28;20193;-81
2022/04/05 02:36:35;;;;;;;0.80;0.80;;;-3.10;99.90;;;;;;4973234;28;20290;-81
2022/04/05 02:39:01;;;;;;;0.80;0.80;;;-3.20;99.90;;;;;;4974544;28;20199;-81
2022/04/05 02:41:27;;;;;;;0.90;0.90;;;-3.10;99.90;;;;;;4972364;28;20750;-82
2022/04/05 02:43:53;;;;;;;0.80;0.80;;;-3.20;99.90;;;;;;4989520;28;20203;-82
2022/04/05 02:46:19;;;;;;;0.88;0.88;;;-3.10;99.90;;;;;;4992552;28;20630;-82
2022/04/05 02:48:46;;;;;;;0.80;0.80;;;-3.20;99.90;;;;;;4992729;28;20627;-82
2022/04/05 02:51:16;;;;;;;0.90;0.90;;;-3.30;99.90;;;;;;4991490;28;20211;-82
2022/04/05 02:53:42;;;;;;;0.80;0.80;;;-3.30;99.90;;;;;;4991391;28;20196;-82
2022/04/05 02:56:09;;;;;;;0.90;0.90;;;-3.40;99.90;;;;;;4991523;28;20204;-82
2022/04/05 02:58:36;;;;;;;0.90;0.90;;;-3.40;99.90;;;;;;4995717;28;20662;-82
2022/04/05 03:01:02;;;;;;;0.80;0.80;;;-3.30;99.90;;;;;;4994731;28;20609;-82
2022/04/05 03:03:28;;;;;;;0.80;0.80;;;-3.30;99.90;;;;;;4985784;28;20573;-81
2022/04/05 03:05:54;;;;;;;0.90;0.90;;;-3.30;99.90;;;;;;4977795;28;20291;-82
2022/04/05 03:08:20;;;;;;;0.80;0.80;;;-3.30;99.90;;;;;;4959998;28;20286;-82
2022/04/05 03:10:45;;;;;;;0.90;0.90;;;-3.40;99.90;;;;;;4977304;28;20224;-82
2022/04/05 03:13:12;;;;;;;0.90;0.90;;;-3.50;99.90;;;;;;4977548;28;20200;-82
2022/04/05 03:15:37;;;;;;;0.77;0.77;;;-3.40;99.90;;;;;;4976264;28;20196;-81
2022/04/05 03:18:03;;;;;;;0.90;0.90;;;-3.40;99.90;;;;;;4960056;28;20622;-82
2022/04/05 03:20:31;;;;;;;0.93;0.93;;;-3.50;99.90;;;;;;4959727;28;20300;-82
2022/04/05 03:22:59;;;;;;;0.70;0.70;;;-3.50;99.90;;;;;;4959720;28;20291;-82
2022/04/05 03:25:25;;;;;;;0.80;0.80;;;-3.60;99.90;;;;;;4976784;28;20192;-81
2022/04/05 03:27:51;;;;;;;0.80;0.80;;;-3.50;99.90;;;;;;4975751;28;20267;-81
2022/04/05 03:30:19;;;;;;;0.90;0.90;;;-3.50;99.90;;;;;;4959161;28;20295;-82
2022/04/05 03:32:45;;;;;;;0.80;0.80;;;-3.60;99.90;;;;;;4959605;28;20224;-81
2022/04/05 03:35:10;;;;;;;0.88;0.88;;;-3.60;99.90;;;;;;4977065;28;20271;-83
2022/04/05 03:37:36;;;;;;;0.90;0.90;;;-3.70;99.90;;;;;;4960495;28;20200;-82
2022/04/05 03:40:04;;;;;;;0.90;0.90;;;-3.80;99.90;;;;;;4959655;28;20200;-82
2022/04/05 03:42:30;;;;;;;0.90;0.90;;;-3.80;99.90;;;;;;4959558;28;20208;-84
2022/04/05 03:44:56;;;;;;;0.80;0.80;;;-3.80;99.90;;;;;;4959336;28;20235;-84
2022/04/05 03:47:22;;;;;;;0.80;0.80;;;-3.80;99.90;;;;;;4959530;28;20258;-82
2022/04/05 03:49:47;;;;;;;0.90;0.90;;;-3.90;99.90;;;;;;4958849;28;20215;-84
2022/04/05 03:52:13;;;;;;;0.90;0.90;;;-3.90;99.90;;;;;;4959246;28;20227;-82
2022/04/05 03:54:39;;;;;;;0.90;0.90;;;-3.90;99.90;;;;;;4976472;28;20200;-82
2022/04/05 03:57:04;;;;;;;0.80;0.80;;;-3.90;99.90;;;;;;4976704;28;20207;-82
2022/04/05 03:59:30;;;;;;;0.80;0.80;;;-3.90;99.90;;;;;;4976405;28;20200;-82
2022/04/05 04:01:56;;;;;;;0.80;0.80;;;-3.80;99.90;;;;;;4956503;28;20212;-82
2022/04/05 04:04:22;;;;;;;0.90;0.90;;;-3.80;99.90;;;;;;4938901;28;20291;-82
2022/04/05 04:06:47;;;;;;;0.85;0.85;;;-3.80;99.90;;;;;;4939036;29;20236;-81
2022/04/05 04:09:13;;;;;;;0.90;0.90;;;-3.90;99.90;;;;;;4938711;29;20240;-81
2022/04/05 04:11:40;;;;;;;0.80;0.80;;;-3.80;99.90;;;;;;4938717;28;20212;-82
2022/04/05 04:14:07;;;;;;;0.90;0.90;;;-3.90;99.90;;;;;;4939183;29;20671;-82
2022/04/05 04:16:34;;;;;;;0.88;0.88;;;-3.90;99.90;;;;;;4939102;28;20204;-82
2022/04/05 04:18:59;;;;;;;0.80;0.80;;;-3.90;99.90;;;;;;4939967;29;20269;-82
2022/04/05 04:21:25;;;;;;;0.80;0.80;;;-4.00;99.90;;;;;;4939412;28;20292;-81
2022/04/05 04:23:51;;;;;;;0.90;0.90;;;-3.90;99.90;;;;;;4938796;29;20288;-82
2022/04/05 04:26:17;;;;;;;0.90;0.90;;;-4.00;99.90;;;;;;4939591;29;20668;-82
2022/04/05 04:28:42;;;;;;;0.90;0.90;;;-4.00;99.90;;;;;;4939688;28;20200;-81
2022/04/05 04:31:08;;;;;;;0.82;0.82;;;-4.00;99.90;;;;;;4954231;28;20642;-82
2022/04/05 04:33:34;;;;;;;0.98;0.98;;;-4.10;99.90;;;;;;4974505;28;20568;-82
2022/04/05 04:36:00;;;;;;;0.88;0.88;;;-4.00;99.90;;;;;;4965658;28;20197;-83
2022/04/05 04:38:26;;;;;;;0.90;0.90;;;-4.00;99.90;;;;;;4958702;28;20199;-82
2022/04/05 04:40:52;;;;;;;0.93;0.93;;;-4.10;99.90;;;;;;4958290;28;20196;-83
2022/04/05 04:43:18;;;;;;;0.90;0.90;;;-4.10;99.90;;;;;;4975910;28;20192;-83
2022/04/05 04:45:45;;;;;;;0.90;0.90;;;-4.10;99.90;;;;;;4975054;28;20314;-83
2022/04/05 04:48:11;;;;;;;0.98;0.98;;;-4.20;99.90;;;;;;4958248;28;20674;-81
2022/04/05 04:50:37;;;;;;;0.80;0.80;;;-4.10;99.90;;;;;;4957994;28;20655;-83
2022/04/05 04:53:03;;;;;;;0.90;0.90;;;-4.10;99.90;;;;;;4958333;28;20216;-82
2022/04/05 04:55:29;;;;;;;0.80;0.80;;;-4.00;99.90;;;;;;4957642;28;20299;-83
2022/04/05 04:57:56;;;;;;;0.85;0.85;;;-4.00;99.90;;;;;;4957309;28;20212;-82
2022/04/05 05:00:22;;;;;;;0.80;0.80;;;-3.90;99.90;;;;;;4974044;28;20668;-82
2022/04/05 05:02:48;;;;;;;0.80;0.80;;;-3.90;99.90;;;;;;4957918;28;20258;-84
2022/04/05 05:05:18;;;;;;;0.90;0.90;;;-3.80;99.90;;;;;;4958033;28;20267;-83
2022/04/05 05:07:45;;;;;;;0.90;0.90;;;-3.70;99.90;;;;;;4976495;28;20725;-82
2022/04/05 05:10:12;;;;;;;0.90;0.90;;;-3.70;99.90;;;;;;4958350;28;20255;-82
2022/04/05 05:12:41;;;;;;;0.90;0.90;;;-3.60;99.90;;;;;;4957649;28;20231;-82
2022/04/05 05:15:13;;;;;;;0.85;0.85;;;-3.60;99.90;;;;;;4975015;28;20706;-82
2022/04/05 05:17:39;;;;;;;0.88;0.88;;;-3.40;99.90;;;;;;4973905;28;20251;-83
2022/04/05 05:20:06;;;;;;;0.82;0.82;;;-3.40;99.90;;;;;;4972231;28;20208;-82
2022/04/05 05:22:32;;;;;;;0.80;0.80;;;-3.40;99.90;;;;;;4973919;28;20667;-82
2022/04/05 05:24:57;;;;;;;0.80;0.80;;;-3.30;99.90;;;;;;4972911;28;20740;-82
2022/04/05 05:27:23;;;;;;;0.80;0.80;;;-3.20;99.90;;;;;;4972702;28;20287;-83
2022/04/05 05:29:49;;;;;;;0.80;0.80;;;-3.20;99.90;;;;;;4974037;28;20196;-83
2022/04/05 05:32:15;;;;;;;0.80;0.80;;;-3.10;99.90;;;;;;4961494;28;20211;-82
2022/04/05 05:34:40;;;;;;;0.80;0.80;;;-3.10;99.90;;;;;;4953546;29;20263;-83
2022/04/05 05:37:06;;;;;;;0.80;0.80;;;-3.00;99.90;;;;;;4938025;29;20212;-84
2022/04/05 05:39:33;;;;;;;0.80;0.80;;;-2.90;99.90;;;;;;4938035;29;20201;-83
2022/04/05 05:41:59;;;;;;;0.90;0.90;;;-2.90;99.90;;;;;;4955193;29;20687;-83
2022/04/05 05:44:24;;;;;;;0.90;0.90;;;-2.80;99.90;;;;;;4938157;29;20695;-83
2022/04/05 05:46:51;;;;;;;0.75;0.75;;;-2.80;99.90;;;;;;4954350;28;20201;-83
2022/04/05 05:49:17;;;;;;;0.80;0.80;;;-2.70;99.90;;;;;;4938128;29;20194;-83
2022/04/05 05:51:43;;;;;;;0.77;0.77;;;-2.70;99.90;;;;;;4937996;29;20243;-83
2022/04/05 05:54:09;;;;;;;0.68;0.68;;;-2.70;99.90;;;;;;4974037;28;20288;-83
2022/04/05 05:56:35;;;;;;;0.80;0.80;;;-2.50;99.90;;;;;;4957284;28;20683;-82
2022/04/05 05:59:00;;;;;;;0.80;0.80;;;-2.50;99.90;;;;;;4974587;28;20231;-83
2022/04/05 06:01:26;;;;;;;0.80;0.80;;;-2.40;99.90;;;;;;4955167;28;20225;-82
2022/04/05 06:03:52;;;;;;;0.80;0.80;;;-2.40;99.90;;;;;;4959958;28;20200;-82
2022/04/05 06:06:17;;;;;;;0.70;0.70;;;-2.30;99.90;;;;;;4954602;28;20196;-82
2022/04/05 06:08:43;;;;;;;0.80;0.80;;;-2.20;99.90;;;;;;4960227;28;20223;-82
2022/04/05 06:11:10;;;;;;;0.90;0.90;;;-2.20;99.90;;;;;;4959928;28;20207;-83
2022/04/05 06:13:37;;;;;;;0.80;0.80;;;-2.20;99.90;;;;;;4956984;28;20200;-82
2022/04/05 06:16:03;;;;;;;0.70;0.70;;;-2.10;99.90;;;;;;4976880;28;20231;-83
2022/04/05 06:18:29;;;;;;;0.70;0.70;;;-2.10;99.90;;;;;;4957008;28;20203;-82
2022/04/05 06:20:55;;;;;;;0.60;0.60;;;-2.00;99.90;;;;;;4973233;28;20659;-82
2022/04/05 06:23:20;;;;;;;0.90;0.90;;;-1.90;99.90;;;;;;4972485;28;20207;-82
2022/04/05 06:25:46;;;;;;;0.70;0.70;;;-1.80;99.90;;;;;;4974191;28;20219;-82
2022/04/05 06:28:12;;;;;;;0.70;0.70;;;-1.70;99.90;;;;;;4961759;28;20200;-83
2022/04/05 06:30:39;;;;;;;0.70;0.70;;;-1.60;99.90;;;;;;4971340;28;20844;-83
2022/04/05 06:33:10;;;;;;;0.70;0.70;;;-1.50;99.90;;;;;;4997128;28;20250;-82
2022/04/05 06:35:47;;;;;;;1.00;1.00;;;-1.50;99.90;;;;;;4997010;28;20211;-82
2022/04/05 06:38:13;;;;;;;1.77;1.67;;;-1.50;99.90;;;;;;4979984;28;20198;-82
2022/04/05 06:40:43;;;;;;;0.73;0.73;;;-1.50;99.90;;;;;;4996888;28;20590;-82
2022/04/05 06:43:10;;;;;;;0.80;0.80;;;-1.40;99.90;;;;;;4960310;28;20659;-82
2022/04/05 06:45:36;;;;;;;0.80;0.80;;;-1.40;99.90;;;;;;4991411;28;20278;-83
2022/04/05 06:48:03;;;;;;;0.70;0.70;;;-1.40;99.90;;;;;;4997490;28;20662;-82
2022/04/05 06:50:29;;;;;;;0.80;0.80;;;-1.40;99.90;;;;;;4979852;28;20209;-83
2022/04/05 06:52:58;;;;;;;0.88;0.88;;;-1.30;99.90;;;;;;4979520;28;20582;-82
2022/04/05 06:55:24;;;;;;;0.80;0.80;;;-1.30;99.90;;;;;;4979500;28;20605;-82
2022/04/05 06:57:51;;;;;;;0.60;0.60;;;-1.10;99.90;;;;;;4979446;28;20286;-82
2022/04/05 07:00:18;;;;;;;0.80;0.80;;;-1.10;99.90;;;;;;4979405;28;20611;-82
2022/04/05 07:02:44;;;;;;;0.80;0.80;;;-1.00;99.90;;;;;;4978949;28;20200;-82
2022/04/05 07:05:10;;;;;;;0.70;0.70;;;-1.00;99.90;;;;;;4979247;28;20258;-82
2022/04/05 07:07:40;;;;;;;0.70;0.70;;;-0.90;99.90;;;;;;4975773;28;20312;-82
2022/04/05 07:10:08;;;;;;;0.70;0.70;;;-0.80;99.90;;;;;;4976236;28;20731;-83
2022/04/05 07:12:34;;;;;;;1.00;1.00;;;-0.80;99.90;;;;;;4975781;28;20212;-82
2022/04/05 07:14:59;;;;;;;0.60;0.60;;;-0.70;99.90;;;;;;4975326;28;20200;-82
2022/04/05 07:17:25;;;;;;;0.63;0.63;;;-0.60;99.90;;;;;;4940365;29;20668;-82
2022/04/05 07:19:54;;;;;;;0.80;0.80;;;-0.60;99.90;;;;;;4939935;29;20197;-82
2022/04/05 07:22:20;;;;;;;0.70;0.70;;;-0.50;99.90;;;;;;4939865;29;20664;-82
2022/04/05 07:24:47;;;;;;;0.80;0.80;;;-0.50;99.90;;;;;;4957736;29;20197;-82
2022/04/05 07:27:13;;;;;;;0.80;0.80;;;-0.50;99.90;;;;;;4940507;29;20591;-82
2022/04/05 07:29:39;;;;;;;0.73;0.73;;;-0.40;99.90;;;;;;4957656;29;20658;-81
2022/04/05 07:32:06;;;;;;;0.80;0.80;;;-0.30;99.90;;;;;;4940237;29;20307;-81
2022/04/05 07:34:32;;;;;;;0.70;0.70;;;-0.30;99.90;;;;;;4940183;29;20253;-82
2022/04/05 07:36:58;;;;;;;0.75;0.75;;;-0.20;99.90;;;;;;4973150;28;20215;-82
2022/04/05 07:39:24;;;;;;;0.80;0.80;;;0.00;99.90;;;;;;4959377;28;20282;-82
2022/04/05 07:41:50;;;;;;;0.70;0.70;;;0.00;99.90;;;;;;4976799;28;20203;-82
2022/04/05 07:44:16;;;;;;;0.77;0.77;;;0.10;99.90;;;;;;4974850;28;20249;-82
2022/04/05 07:46:42;;;;;;;0.70;0.70;;;0.20;99.90;;;;;;4975251;28;20200;-81
2022/04/05 07:49:08;;;;;;;0.80;0.80;;;0.40;99.90;;;;;;4975666;28;20200;-81
2022/04/05 07:51:34;;;;;;;0.73;0.73;;;0.30;99.90;;;;;;4958891;28;20582;-81
2022/04/05 07:53:59;;;;;;;0.70;0.70;;;0.30;99.90;;;;;;4958507;28;20208;-82
2022/04/05 07:56:25;;;;;;;0.70;0.70;;;0.30;99.90;;;;;;4976090;28;20749;-82
2022/04/05 07:58:51;;;;;;;0.60;0.60;;;0.40;99.90;;;;;;4976587;28;20193;-82
2022/04/05 08:01:16;;;;;;;0.90;0.90;;;0.50;99.90;;;;;;4958972;28;20260;-82
2022/04/05 08:03:42;;;;;;;1.23;1.17;;;0.60;99.90;;;;;;4976202;28;20279;-82
2022/04/05 08:06:08;;;;;;;0.90;0.90;;;0.60;99.90;;;;;;4975000;28;20196;-83
2022/04/05 08:08:34;;;;;;;0.70;0.70;;;0.80;99.90;;;;;;4976063;28;20235;-82
2022/04/05 08:11:00;;;;;;;0.75;0.75;;;0.90;99.90;;;;;;4959109;28;20200;-81
2022/04/05 08:13:26;;;;;;;0.60;0.60;;;1.00;99.90;;;;;;4959071;28;20637;-81
2022/04/05 08:15:53;;;;;;;0.60;0.60;;;1.20;99.90;;;;;;4976427;28;20223;-80
2022/04/05 08:18:20;;;;;;;0.70;0.70;;;1.50;99.90;;;;;;4974800;28;20200;-81
2022/04/05 08:20:46;;;;;;;0.63;0.63;;;1.50;99.90;;;;;;4958482;28;20196;-80
2022/04/05 08:23:12;;;;;;;0.80;0.80;;;1.50;99.90;;;;;;4974687;28;20200;-81
2022/04/05 08:25:38;;;;;;;0.60;0.60;;;1.40;99.90;;;;;;4975841;28;20660;-80
2022/04/05 08:28:04;;;;;;;0.65;0.65;;;1.10;99.90;;;;;;4957894;28;20204;-82
2022/04/05 08:30:30;;;;;;;0.50;0.50;;;1.00;99.90;;;;;;4952577;29;20208;-80
2022/04/05 08:32:57;;;;;;;0.70;0.70;;;1.10;99.90;;;;;;4939181;28;20271;-81
2022/04/05 08:35:23;;;;;;;0.63;0.63;;;1.30;99.90;;;;;;4954812;29;20189;-81
2022/04/05 08:37:51;;;;;;;0.70;0.70;;;1.40;99.90;;;;;;4939151;29;20201;-80
2022/04/05 08:40:18;;;;;;;0.70;0.70;;;1.70;99.90;;;;;;4939347;29;20256;-81
2022/04/05 08:42:49;;;;;;;0.70;0.70;;;1.80;99.90;;;;;;4941707;28;20204;-81
2022/04/05 08:45:16;;;;;;;0.68;0.68;;;2.10;99.90;;;;;;4975569;28;20210;-81
2022/04/05 08:47:50;;;;;;;0.52;0.52;;;2.50;99.90;;;;;;4976195;28;20736;-81
2022/04/05 08:50:21;;;;;;;0.70;0.70;;;3.00;99.90;;;;;;4975878;28;20192;-84
2022/04/05 08:52:48;;;;;;;0.70;0.70;;;3.10;99.90;;;;;;4974694;28;20215;-84
2022/04/05 08:55:14;;;;;;;1.75;1.38;;;2.70;99.90;;;;;;4957965;28;20232;-85
2022/04/05 08:57:40;;;;;;;0.60;0.60;;;2.70;99.90;;;;;;4975656;28;20196;-84
2022/04/05 09:00:08;;;;;;;0.55;0.55;;;2.90;99.90;;;;;;4958586;28;20219;-85
2022/04/05 09:02:34;;;;;;;0.80;0.80;;;3.40;99.90;;;;;;4975465;28;20207;-85
2022/04/05 09:05:00;;;;;;;0.63;0.63;;;3.40;99.90;;;;;;4958311;28;20201;-85
2022/04/05 09:07:31;;;;;;;0.70;0.70;;;3.70;99.90;;;;;;4960332;28;20672;-84
2022/04/05 09:10:14;;;;;;;0.65;0.65;;;3.60;99.90;;;;;;4994699;28;20247;-84
2022/04/05 09:12:52;;;;;;;0.60;0.60;;;3.50;99.90;;;;;;4994124;28;20218;-85
2022/04/05 09:15:20;;;;;;;0.65;0.65;;;3.30;99.90;;;;;;4992596;28;20651;-83
2022/04/05 09:17:48;;;;;;;0.50;0.50;;;2.90;99.90;;;;;;4993519;28;20231;-84
2022/04/05 09:20:17;;;;;;;0.60;0.60;;;2.80;99.90;;;;;;4995193;28;20194;-84
2022/04/05 09:22:43;;;;;;;0.50;0.50;;;3.00;99.90;;;;;;4994882;28;20234;-84
2022/04/05 09:25:12;;;;;;;0.70;0.70;;;3.30;99.90;;;;;;4977762;28;20195;-84
2022/04/05 09:27:47;;;;;;;0.60;0.60;;;3.40;99.90;;;;;;4975696;28;20203;-84
2022/04/05 09:30:15;;;;;;;0.70;0.70;;;3.30;99.90;;;;;;4974233;28;20191;-84
2022/04/05 09:32:43;;;;;;;0.85;0.75;;;3.30;99.90;;;;;;4973898;28;20216;-83
2022/04/05 09:35:10;;;;;;;0.60;0.60;;;3.40;99.90;;;;;;4958218;28;20196;-83
2022/04/05 09:37:39;;;;;;;0.70;0.70;;;3.50;99.90;;;;;;4973821;28;20203;-84
2022/04/05 09:40:15;;;;;;;0.50;0.50;;;3.60;99.90;;;;;;4975388;28;20203;-82
2022/04/05 09:43:04;;;;;;;0.70;0.70;;;3.40;99.90;;;;;;4973782;28;20227;-83
2022/04/05 09:45:52;;;;;;;0.60;0.60;;;3.10;99.90;;;;;;4973668;28;20540;-82
2022/04/05 09:48:30;;;;;;;0.60;0.60;;;3.00;99.90;;;;;;4974355;28;20200;-83
2022/04/05 09:51:00;;;;;;;0.63;0.63;;;3.40;99.90;;;;;;4973691;28;20207;-84
2022/04/05 09:53:47;;;;;;;0.60;0.60;;;3.50;99.90;;;;;;4973533;28;20202;-83
2022/04/05 09:56:30;;;;;;;0.65;0.65;;;4.00;99.90;;;;;;4973894;28;20218;-83
2022/04/05 09:59:02;;;;;;;0.60;0.60;;;4.00;99.90;;;;;;4973746;28;20219;-83
2022/04/05 10:01:29;;;;;;;0.60;0.60;;;4.30;99.90;;;;;;4973222;28;20208;-84
2022/04/05 10:03:56;;;;;;;0.60;0.60;;;4.70;99.90;;;;;;4973434;28;20208;-84
2022/04/05 10:06:22;;;;;;;0.60;0.60;;;4.40;99.90;;;;;;4975167;28;20234;-83
2022/04/05 10:08:48;;;;;;;0.70;0.70;;;3.70;99.90;;;;;;4977212;28;20263;-84
2022/04/05 10:11:14;;;;;;;0.60;0.60;;;3.00;99.90;;;;;;4979020;28;20248;-84
2022/04/05 10:13:41;;;;;;;0.57;0.57;;;2.50;99.90;;;;;;4977670;28;20274;-83
2022/04/05 10:16:11;;;;;;;0.50;0.50;;;2.60;99.90;;;;;;4978763;28;20197;-84
2022/04/05 10:18:36;;;;;;;0.60;0.60;;;2.80;99.90;;;;;;4977012;28;20200;-84
2022/04/05 10:21:04;;;;;;;0.60;0.60;;;2.90;99.90;;;;;;4960088;28;20204;-84
2022/04/05 10:23:31;;;;;;;0.60;0.60;;;3.10;99.90;;;;;;4976520;28;20199;-83
2022/04/05 10:25:58;;;;;;;0.52;0.52;;;3.20;99.90;;;;;;4960836;28;20226;-84
2022/04/05 10:28:27;;;;;;;0.60;0.60;;;3.30;99.90;;;;;;4960750;28;20675;-86
2022/04/05 10:31:13;;;;;;;0.60;0.60;;;3.20;99.90;;;;;;4959863;28;20203;-86
2022/04/05 10:33:51;;;;;;;0.52;0.52;;;3.50;99.90;;;;;;4959419;28;20614;-86
2022/04/05 10:36:22;;;;;;;0.60;0.60;;;3.80;99.90;;;;;;4977046;28;20199;-86
2022/04/05 10:39:13;;;;;;;0.52;0.52;;;4.10;99.90;;;;;;4976892;28;20620;-86
2022/04/05 10:41:38;;;;;;;0.60;0.60;;;4.20;99.90;;;;;;4975687;28;20264;-86
2022/04/05 10:44:16;;;;;;;0.55;0.55;;;4.70;99.90;;;;;;4975572;28;20303;-84
2022/04/05 10:46:51;;;;;;;0.50;0.50;;;4.40;99.90;;;;;;4976452;28;20686;-84
2022/04/05 10:49:37;;;;;;;0.70;0.70;;;4.40;99.90;;;;;;4976636;28;20211;-84
2022/04/05 10:52:27;;;;;;;0.60;0.60;;;5.10;99.90;;;;;;4976795;28;20576;-87
2022/04/05 10:55:04;;;;;;;0.70;0.70;;;5.40;99.90;;;;;;4960037;28;20212;-87
2022/04/05 10:57:32;;;;;;;0.60;0.60;;;5.20;99.90;;;;;;4977426;28;20196;-85
2022/04/05 11:00:08;;;;;;;0.40;0.40;;;4.60;99.90;;;;;;4976274;28;20291;-85
2022/04/05 11:02:53;;;;;;;0.60;0.60;;;4.60;99.90;;;;;;4976130;28;20211;-86
2022/04/05 11:05:19;;;;;;;0.60;0.60;;;4.80;99.90;;;;;;4976392;28;20203;-84
2022/04/05 11:07:54;;;;;;;0.68;0.68;;;5.60;99.90;;;;;;4977324;28;20244;-86
2022/04/05 11:10:27;;;;;;;0.50;0.50;;;6.20;99.90;;;;;;4976170;28;20554;-85
2022/04/05 11:13:14;;;;;;;0.60;0.60;;;5.90;99.90;;;;;;4977427;28;20235;-86
2022/04/05 11:15:47;;;;;;;0.60;0.60;;;5.70;99.90;;;;;;4976025;28;20204;-86
2022/04/05 11:18:15;;;;;;;0.60;0.60;;;5.70;99.90;;;;;;4959156;28;20220;-86
2022/04/05 11:20:43;;;;;;;0.57;0.57;;;6.00;99.90;;;;;;4976975;28;20200;-87
2022/04/05 11:23:10;;;;;;;0.60;0.60;;;6.40;99.90;;;;;;4959911;28;20266;-84
2022/04/05 11:25:37;;;;;;;0.90;0.90;;;7.00;99.90;;;;;;4959742;28;20694;-83
2022/04/05 11:28:12;;;;;;;0.60;0.60;;;6.80;95.20;;;;;;4959908;28;20200;-84
2022/04/05 11:31:27;;;;;;;0.63;0.63;;;6.50;98.20;;;;;;4974934;28;20203;-84
2022/04/05 11:33:53;;;;;;;0.70;0.70;;;6.80;97.80;;;;;;4941568;28;20216;-86
2022/04/05 11:36:22;;;;;;;0.60;0.60;;;6.80;95.00;;;;;;4963865;28;20208;-84
2022/04/05 11:38:57;;;;;;;0.60;0.60;;;7.40;96.00;;;;;;4956805;29;20197;-83
2022/04/05 11:41:27;;;;;;;0.70;0.70;;;6.90;94.00;;;;;;4955335;29;20266;-83
2022/04/05 11:43:56;;;;;;;0.50;0.50;;;7.10;98.60;;;;;;4955489;28;20201;-83
2022/04/05 11:46:30;;;;;;;0.57;0.57;;;7.50;95.30;;;;;;4956226;29;20209;-83
2022/04/05 11:48:58;;;;;;;0.60;0.60;;;8.00;93.10;;;;;;4956351;29;20687;-83
2022/04/05 11:51:26;;;;;;;0.60;0.60;;;7.80;93.00;;;;;;4955872;28;20209;-81
2022/04/05 11:54:01;;;;;;;0.80;0.80;;;7.70;90.10;;;;;;4956445;28;20233;-86
2022/04/05 11:56:27;;;;;;;0.55;0.55;;;7.50;91.70;;;;;;4959413;28;20667;-85
2022/04/05 11:59:00;;;;;;;0.60;0.60;;;7.70;91.40;;;;;;4978445;28;20198;-85
2022/04/05 12:01:31;;;;;;;0.60;0.60;;;7.60;90.20;;;;;;4995938;28;20539;-85
2022/04/05 12:04:13;;;;;;;0.60;0.60;;;7.00;87.80;;;;;;4978595;28;20196;-85
2022/04/05 12:06:40;;;;;;;0.70;0.70;;;7.20;91.50;;;;;;4996085;28;20203;-85
2022/04/05 12:09:09;;;;;;;0.60;0.60;;;7.70;89.00;;;;;;4975441;28;20243;-84
2022/04/05 12:11:39;;;;;;;0.60;0.60;;;7.90;86.30;;;;;;4975176;28;20590;-85
2022/04/05 12:14:10;;;;;;;0.60;0.60;;;7.90;85.30;;;;;;4971295;28;20288;-84
2022/04/05 12:16:53;;;;;;;0.50;0.50;;;8.20;90.20;;;;;;4969184;28;20201;-86
2022/04/05 12:19:21;;;;;;;0.50;0.50;;;8.40;80.90;;;;;;4955485;29;20193;-85
2022/04/05 12:21:55;;;;;;;0.50;0.50;;;8.40;84.40;;;;;;4954568;29;20208;-85
2022/04/05 12:24:22;;;;;;;0.63;0.63;;;8.00;89.20;;;;;;4960485;28;20203;-85
2022/04/05 12:27:06;;;;;;;0.60;0.60;;;8.10;79.20;;;;;;4959521;28;20204;-85
2022/04/05 12:29:39;;;;;;;0.52;0.52;;;7.50;78.70;;;;;;4958272;28;20287;-87
2022/04/05 12:32:10;;;;;;;0.60;0.60;;;6.60;81.80;;;;;;4958851;28;20216;-86
2022/04/05 12:34:37;;;;;;;0.60;0.60;;;5.90;86.50;;;;;;4964142;28;20620;-87
2022/04/05 12:37:05;;;;;;;0.52;0.52;;;5.90;90.20;;;;;;4976500;28;20255;-87
2022/04/05 12:39:40;;;;;;;0.50;0.50;;;6.60;86.60;;;;;;4958472;28;20200;-87
2022/04/05 12:42:07;;;;;;;0.60;0.60;;;7.30;83.20;;;;;;4958351;28;20206;-87
2022/04/05 12:44:36;;;;;;;0.60;0.60;;;7.80;82.20;;;;;;4975936;28;20192;-87
2022/04/05 12:47:06;;;;;;;0.50;0.50;;;7.40;76.70;;;;;;4958794;28;20204;-86
2022/04/05 12:49:58;;;;;;;0.50;0.50;;;6.10;79.80;;;;;;4975760;28;20251;-85
2022/04/05 12:52:24;;;;;;;0.47;0.47;;;6.00;81.60;;;;;;4956955;28;20757;-86
2022/04/05 12:54:57;;;;;;;0.47;0.47;;;5.90;85.30;;;;;;4955034;29;20232;-86
2022/04/05 12:57:30;;;;;;;0.60;0.60;;;6.10;81.50;;;;;;4938527;29;20712;-86